Albright, Illinois
Current Conditions -  °F | °C
As of 3:15 AM on Wednesday 28 Jan 2015 (Local Time) from KPRG Reporting Station
Clear Clear  
Wind Chill: -8°   Ceiling: Unl
Heat Index: -8°   Visibility: 10mi
Dew Point: -8°   Wind: 0mph
Humidity: 96%   Direction: NA
Pressure: 30.3"   Gusts: NA
Location:  39.4361°N, 87.7043°W
Report Text: KPRG 280915Z AUTO 00000KT 10SM CLR M08/M08 A3030 RMK AO2 T10761081
Loading
Personal Weather Stations






























Interactive Weather Map New forecast layout! Learn more

10-Day Weather Forecast

Advertisements
Track Severe Weather on mobile